Página principal
METAR-TAF:

METAR-TAF

Aeroportos :

Brevig Mission, Alasca, Estados Unidos

latitude: 65-19-53N, longitude: 166-27-57W, altura: 11 m

Observação actual do tempo

O boletim foi feito há 1 hora e 19 minutos, às 10:56 UTC
Vento 7 kt de es-nordeste
Temperatura 9°C
Humidade 93%
Pressão 1016 hPa
Visibilidade: 16.1 km
Céu limpo

METAR: PFKT 221056Z AUTO 07007KT 10SM CLR 09/08 A3001 RMK AO2 SLP163 T00940083

Hora: 04:15 (12:15 UTC)


TAF: em falta

Observações e previsões do tempo de mais de 4000 aeroportos (mensagens METAR e TAF).

As estações disponíveis são os pontos amarelos e vermelhos sobre o mapa.

Mova o rato sobre o mapa para ver o nome da estação.

Depois clique no ponto para visualizar as observações e previsões meteorológicas.

Para alterar o mapa : clique nos botões verdes com uma cruz preta para aumentar o zoom; no botão verde com uma pitada de zoom; ou nas setas verdes para mapas adjacentes.


METAR-TAF: